Time;durP1;ratioP1;P1;durP2;ratioP2;P2;SDS_P1;SDS_P2;PMS_P1;PMS_P2;Temp;Humidity;BMP_temperature;BMP_pressure;BME280_temperature;BME280_humidity;BME280_pressure;Samples;Min_cycle;Max_cycle;Signal;HPM_P1;HPM_P2
2021/12/25 00:00:09;;;;;;;13.32;2.40;;;;;;;;;;5018325;28;20037;-61
2021/12/25 00:02:35;;;;;;;13.63;3.40;;;;;;;;;;5022777;28;20036;-61
2021/12/25 00:05:01;;;;;;;14.38;2.60;;;;;;;;;;5028575;28;20492;-62
2021/12/25 00:07:27;;;;;;;19.88;3.28;;;;;;;;;;5028939;28;20472;-62
2021/12/25 00:09:53;;;;;;;19.67;3.47;;;;;;;;;;5029294;28;20507;-62
2021/12/25 12:49:06;;;;;;;21.42;4.03;;;;;;;;;;5103417;27;1394646;-65
2021/12/25 12:51:32;;;;;;;12.02;3.25;;;;;;;;;;5128624;27;20028;-64
2021/12/25 12:53:59;;;;;;;12.40;3.45;;;;;;;;;;5125198;28;20030;-64
2021/12/25 12:56:25;;;;;;;12.05;3.40;;;;;;;;;;5114585;28;20473;-65
2021/12/25 12:58:51;;;;;;;13.25;3.85;;;;;;;;;;5128322;28;20020;-64
2021/12/25 13:01:17;;;;;;;23.17;4.07;;;;;;;;;;5128216;28;20047;-64
2021/12/25 13:03:44;;;;;;;7.90;3.20;;;;;;;;;;5127505;28;20072;-64
2021/12/25 13:06:13;;;;;;;7.88;2.20;;;;;;;;;;5128344;28;20023;-64
2021/12/25 13:08:40;;;;;;;8.95;2.45;;;;;;;;;;5126292;28;20060;-63
2021/12/25 13:11:19;;;;;;;7.10;2.08;;;;;;;;;;5128198;27;20040;-64
2021/12/25 13:13:53;;;;;;;9.13;3.13;;;;;;;;;;5126600;28;20023;-63
2021/12/25 13:16:20;;;;;;;13.10;2.47;;;;;;;;;;5128040;27;20106;-63
2021/12/25 13:18:47;;;;;;;5.78;2.40;;;;;;;;;;5117222;28;20458;-63
2021/12/25 13:21:22;;;;;;;9.43;2.80;;;;;;;;;;5127977;28;20020;-63
2021/12/25 13:23:51;;;;;;;11.15;3.38;;;;;;;;;;5147862;27;20031;-64
2021/12/25 13:26:19;;;;;;;6.95;2.55;;;;;;;;;;5147309;27;20027;-63
2021/12/25 13:28:47;;;;;;;13.88;2.95;;;;;;;;;;5142248;27;20357;-63
2021/12/25 13:31:14;;;;;;;6.90;2.10;;;;;;;;;;5124649;27;20019;-64
2021/12/25 13:33:47;;;;;;;6.82;1.60;;;;;;;;;;5126755;28;20437;-64
2021/12/25 13:36:13;;;;;;;;;;;;;;;;;;5128315;28;20104;-64
2021/12/25 13:38:58;;;;;;;6.65;2.88;;;;;;;;;;5111649;28;20067;-63
2021/12/25 13:41:34;;;;;;;4.97;2.35;;;;;;;;;;5107057;28;20359;-63
2021/12/25 13:44:06;;;;;;;8.40;1.30;;;;;;;;;;5106985;28;20024;-63
2021/12/25 13:46:37;;;;;;;5.20;1.08;;;;;;;;;;5106953;28;20020;-63
2021/12/25 13:49:03;;;;;;;5.82;1.75;;;;;;;;;;5126277;28;20055;-63
2021/12/25 13:51:29;;;;;;;5.97;1.33;;;;;;;;;;5134228;27;20044;-63
2021/12/25 13:53:55;;;;;;;4.70;1.30;;;;;;;;;;5146705;27;20067;-63
2021/12/25 13:56:22;;;;;;;4.00;1.27;;;;;;;;;;5118342;27;20509;-63
2021/12/25 13:58:48;;;;;;;4.88;1.00;;;;;;;;;;5109797;28;20146;-63
2021/12/25 14:01:15;;;;;;;2.38;1.20;;;;;;;;;;5093640;28;20116;-64
2021/12/25 14:03:42;;;;;;;3.70;1.40;;;;;;;;;;5093190;28;20048;-63
2021/12/25 14:06:08;;;;;;;7.00;1.10;;;;;;;;;;5091797;28;20420;-64
2021/12/25 14:08:34;;;;;;;3.38;1.10;;;;;;;;;;5107312;28;20028;-63
2021/12/25 14:11:01;;;;;;;5.13;1.73;;;;;;;;;;5110353;28;20145;-63
2021/12/25 14:13:28;;;;;;;6.60;1.17;;;;;;;;;;5104105;27;20556;-63
2021/12/25 14:15:55;;;;;;;3.95;0.93;;;;;;;;;;5133751;27;20016;-63
2021/12/25 14:18:21;;;;;;;2.95;1.23;;;;;;;;;;5114636;27;20502;-63
2021/12/25 14:20:48;;;;;;;3.75;1.10;;;;;;;;;;5101672;28;20369;-64
2021/12/25 14:23:15;;;;;;;2.55;1.02;;;;;;;;;;5098859;28;20066;-64
2021/12/25 14:25:46;;;;;;;5.43;2.05;;;;;;;;;;5092592;28;20032;-63
2021/12/25 14:28:13;;;;;;;3.20;1.00;;;;;;;;;;5092399;28;20127;-63
2021/12/25 14:30:43;;;;;;;2.42;0.80;;;;;;;;;;5111572;28;20032;-64
2021/12/25 14:33:13;;;;;;;4.32;1.23;;;;;;;;;;5102319;28;20035;-63
2021/12/25 14:35:39;;;;;;;1.98;0.80;;;;;;;;;;5108017;28;20436;-64
2021/12/25 14:38:05;;;;;;;3.33;1.30;;;;;;;;;;5101684;28;20022;-64
2021/12/25 14:40:34;;;;;;;2.80;0.70;;;;;;;;;;5111404;28;20064;-63
2021/12/25 14:43:01;;;;;;;1.38;0.70;;;;;;;;;;5111349;28;20080;-63
2021/12/25 14:45:27;;;;;;;2.40;0.90;;;;;;;;;;5112137;27;20023;-63
2021/12/25 14:47:54;;;;;;;5.85;1.23;;;;;;;;;;5104890;28;20360;-64
2021/12/25 14:50:27;;;;;;;4.30;1.60;;;;;;;;;;5109046;28;20538;-63
2021/12/25 14:53:08;;;;;;;7.13;1.95;;;;;;;;;;5111931;28;20103;-63
2021/12/25 14:55:38;;;;;;;3.13;1.40;;;;;;;;;;5112023;28;20026;-63
2021/12/25 14:58:05;;;;;;;4.10;1.95;;;;;;;;;;5110330;28;20118;-63
2021/12/25 15:00:31;;;;;;;8.38;2.67;;;;;;;;;;5108972;28;20037;-64
2021/12/25 15:03:08;;;;;;;5.72;2.08;;;;;;;;;;5093660;28;20023;-64
2021/12/25 15:05:38;;;;;;;8.07;1.92;;;;;;;;;;5111726;28;20054;-64
2021/12/25 15:08:25;;;;;;;10.63;1.52;;;;;;;;;;5108995;28;20083;-64
2021/12/25 15:10:52;;;;;;;3.97;1.10;;;;;;;;;;5101749;28;20032;-64
2021/12/25 15:13:19;;;;;;;2.47;1.02;;;;;;;;;;5101618;28;20551;-64
2021/12/25 15:15:49;;;;;;;5.65;1.13;;;;;;;;;;5108475;27;20028;-64
2021/12/25 15:18:44;;;;;;;6.28;0.90;;;;;;;;;;5108527;28;20490;-64
2021/12/25 15:21:20;;;;;;;7.25;1.10;;;;;;;;;;5076518;28;20547;-63
2021/12/25 15:23:48;;;;;;;6.25;1.40;;;;;;;;;;5090671;28;20058;-63
2021/12/25 15:26:14;;;;;;;8.10;2.03;;;;;;;;;;5090339;28;20471;-63
2021/12/25 15:28:42;;;;;;;6.25;1.40;;;;;;;;;;5089080;28;20042;-62
2021/12/25 15:31:18;;;;;;;10.27;1.40;;;;;;;;;;5098460;28;20427;-64
2021/12/25 15:33:45;;;;;;;6.18;1.48;;;;;;;;;;5091214;28;20048;-63
2021/12/25 15:36:14;;;;;;;6.35;0.82;;;;;;;;;;5091245;28;20082;-63
2021/12/25 15:38:40;;;;;;;3.47;1.20;;;;;;;;;;5090555;28;20028;-64
2021/12/25 15:41:07;;;;;;;7.05;1.60;;;;;;;;;;5098533;28;20036;-63
2021/12/25 15:43:33;;;;;;;9.43;1.40;;;;;;;;;;5107879;28;20034;-63
2021/12/25 15:46:02;;;;;;;1.95;1.17;;;;;;;;;;5111590;27;20055;-65
2021/12/25 15:48:28;;;;;;;5.68;1.60;;;;;;;;;;5103455;28;20123;-63
2021/12/25 15:50:54;;;;;;;7.13;2.38;;;;;;;;;;5095754;28;20039;-63
2021/12/25 15:53:20;;;;;;;7.57;2.53;;;;;;;;;;5101313;28;20045;-63
2021/12/25 15:55:46;;;;;;;8.50;1.80;;;;;;;;;;5103982;28;20470;-63
2021/12/25 15:58:14;;;;;;;5.68;2.15;;;;;;;;;;5110476;28;20493;-63
2021/12/25 16:00:41;;;;;;;8.07;2.15;;;;;;;;;;5094156;28;20031;-63
2021/12/25 16:03:07;;;;;;;7.75;2.70;;;;;;;;;;5110529;28;20023;-63
2021/12/25 16:05:33;;;;;;;10.95;2.15;;;;;;;;;;5088984;28;20371;-64
2021/12/25 16:08:00;;;;;;;5.00;2.08;;;;;;;;;;5090157;28;20039;-63
2021/12/25 16:10:26;;;;;;;5.85;1.45;;;;;;;;;;5090240;28;20053;-63
2021/12/25 16:12:52;;;;;;;7.85;1.60;;;;;;;;;;5092030;28;20486;-63
2021/12/25 16:15:18;;;;;;;9.18;2.70;;;;;;;;;;5122895;27;20023;-63
2021/12/25 16:17:44;;;;;;;4.70;2.05;;;;;;;;;;5130947;27;20425;-63
2021/12/25 16:20:11;;;;;;;12.90;2.42;;;;;;;;;;5117354;27;20019;-62
2021/12/25 16:22:37;;;;;;;7.05;1.63;;;;;;;;;;5108090;28;20039;-63
2021/12/25 16:25:04;;;;;;;12.05;2.15;;;;;;;;;;5110304;28;20027;-63
2021/12/25 16:27:30;;;;;;;11.35;3.28;;;;;;;;;;5105517;28;20020;-63
2021/12/25 16:29:56;;;;;;;16.05;4.70;;;;;;;;;;5107559;28;20019;-63
2021/12/25 16:32:22;;;;;;;10.48;2.50;;;;;;;;;;5102780;28;20020;-63
2021/12/25 16:34:48;;;;;;;9.57;3.00;;;;;;;;;;5092486;28;20112;-63
2021/12/25 16:37:14;;;;;;;16.73;5.80;;;;;;;;;;5090315;28;20165;-63
2021/12/25 16:39:41;;;;;;;12.02;4.05;;;;;;;;;;5092822;28;20081;-63
2021/12/25 16:42:08;;;;;;;13.40;3.97;;;;;;;;;;5110363;28;20026;-63
2021/12/25 16:44:34;;;;;;;13.52;4.50;;;;;;;;;;5105896;28;20034;-63
2021/12/25 16:47:01;;;;;;;18.40;10.18;;;;;;;;;;5130437;28;20080;-63
2021/12/25 16:49:27;;;;;;;24.40;10.13;;;;;;;;;;5130522;27;20035;-62
2021/12/25 16:51:54;;;;;;;22.05;8.77;;;;;;;;;;5114462;28;20020;-63
2021/12/25 16:54:20;;;;;;;12.63;3.50;;;;;;;;;;5098133;28;20482;-63
2021/12/25 16:56:47;;;;;;;9.23;3.05;;;;;;;;;;5092120;28;20032;-64
2021/12/25 16:59:14;;;;;;;7.65;2.50;;;;;;;;;;5089340;28;20028;-63
2021/12/25 17:01:40;;;;;;;11.73;1.92;;;;;;;;;;5091771;28;20032;-64
2021/12/25 17:04:06;;;;;;;12.85;2.70;;;;;;;;;;5088446;28;20031;-63
2021/12/25 17:06:32;;;;;;;12.00;2.75;;;;;;;;;;5089284;28;20074;-63
2021/12/25 17:08:58;;;;;;;15.25;3.08;;;;;;;;;;5090921;28;20421;-63
2021/12/25 17:11:25;;;;;;;7.97;2.83;;;;;;;;;;5092826;28;20038;-63
2021/12/25 17:13:51;;;;;;;17.23;2.97;;;;;;;;;;5109331;28;20019;-63
2021/12/25 17:16:17;;;;;;;10.73;2.72;;;;;;;;;;5110295;28;20089;-63
2021/12/25 17:18:43;;;;;;;12.15;3.13;;;;;;;;;;5089430;28;20031;-63
2021/12/25 17:21:09;;;;;;;10.57;3.17;;;;;;;;;;5092221;28;20040;-63
2021/12/25 17:23:35;;;;;;;10.43;3.28;;;;;;;;;;5107753;28;20035;-63
2021/12/25 17:26:01;;;;;;;13.55;3.40;;;;;;;;;;5103084;28;20028;-63
2021/12/25 17:28:28;;;;;;;17.40;4.15;;;;;;;;;;5088843;28;20020;-64
2021/12/25 17:30:54;;;;;;;12.45;3.42;;;;;;;;;;5089212;28;20035;-63
2021/12/25 17:33:21;;;;;;;18.30;8.38;;;;;;;;;;5105944;28;20377;-63
2021/12/25 17:35:47;;;;;;;18.55;7.18;;;;;;;;;;5094826;28;20032;-63
2021/12/25 17:38:14;;;;;;;14.40;5.43;;;;;;;;;;5101014;28;20153;-63
2021/12/25 17:40:40;;;;;;;21.88;6.70;;;;;;;;;;5111942;28;20031;-63
2021/12/25 17:43:07;;;;;;;10.32;5.13;;;;;;;;;;5093977;28;20026;-63
2021/12/25 17:45:33;;;;;;;12.38;4.95;;;;;;;;;;5106934;27;20028;-64
2021/12/25 17:47:59;;;;;;;12.00;4.80;;;;;;;;;;5112754;28;20078;-63
2021/12/25 17:50:27;;;;;;;17.67;4.88;;;;;;;;;;5110694;28;20465;-63
2021/12/25 17:52:53;;;;;;;9.82;3.95;;;;;;;;;;5091568;28;20433;-63
2021/12/25 17:55:19;;;;;;;14.88;4.00;;;;;;;;;;5092894;28;20024;-63
2021/12/25 17:57:45;;;;;;;18.42;4.25;;;;;;;;;;5092031;28;20311;-63
2021/12/25 18:00:13;;;;;;;17.20;4.05;;;;;;;;;;5092826;28;20027;-63
2021/12/25 18:02:39;;;;;;;12.27;5.15;;;;;;;;;;5093592;28;20063;-63
2021/12/25 18:05:07;;;;;;;16.10;6.35;;;;;;;;;;5099356;28;20027;-64
2021/12/25 18:07:33;;;;;;;17.65;5.43;;;;;;;;;;5091199;28;20020;-63
2021/12/25 18:09:59;;;;;;;18.27;4.95;;;;;;;;;;5092441;28;20024;-63
2021/12/25 18:12:28;;;;;;;16.40;5.00;;;;;;;;;;5092866;28;20395;-64
2021/12/25 18:14:54;;;;;;;21.27;7.00;;;;;;;;;;5108169;27;20023;-63
2021/12/25 18:17:20;;;;;;;24.42;6.95;;;;;;;;;;5133616;27;20027;-63
2021/12/25 18:19:47;;;;;;;12.88;3.45;;;;;;;;;;5133687;27;20023;-63
2021/12/25 18:22:13;;;;;;;20.25;4.47;;;;;;;;;;5101953;27;20020;-64
2021/12/25 18:24:39;;;;;;;15.90;4.22;;;;;;;;;;5091506;28;20528;-63
2021/12/25 18:27:05;;;;;;;9.07;3.45;;;;;;;;;;5092353;28;20028;-63
2021/12/25 18:29:31;;;;;;;18.30;4.10;;;;;;;;;;5104663;28;20019;-63
2021/12/25 18:32:01;;;;;;;18.58;5.22;;;;;;;;;;5107247;28;20107;-63
2021/12/25 18:34:28;;;;;;;16.42;4.18;;;;;;;;;;5079395;28;20031;-63
2021/12/25 18:36:54;;;;;;;14.10;4.65;;;;;;;;;;5111882;28;20028;-63
2021/12/25 18:39:20;;;;;;;17.35;4.80;;;;;;;;;;5112901;28;20111;-64
2021/12/25 18:41:46;;;;;;;16.05;4.88;;;;;;;;;;5100310;28;20093;-63
2021/12/25 18:44:13;;;;;;;17.08;5.22;;;;;;;;;;5086707;27;20084;-63
2021/12/25 18:46:39;;;;;;;12.88;4.13;;;;;;;;;;5112518;28;20115;-63
2021/12/25 18:49:05;;;;;;;12.13;4.00;;;;;;;;;;5112469;28;20126;-63
2021/12/25 18:51:31;;;;;;;16.25;4.63;;;;;;;;;;5112580;28;20030;-63
2021/12/25 18:53:57;;;;;;;21.10;5.45;;;;;;;;;;5109006;28;20027;-63
2021/12/25 18:56:23;;;;;;;19.85;6.32;;;;;;;;;;5105101;28;20495;-63
2021/12/25 18:58:49;;;;;;;25.15;7.10;;;;;;;;;;5096418;28;20068;-64
2021/12/25 19:01:15;;;;;;;18.55;6.72;;;;;;;;;;5095476;28;20047;-63
2021/12/25 19:03:42;;;;;;;22.38;6.75;;;;;;;;;;5111711;28;20042;-63
2021/12/25 19:06:08;;;;;;;23.88;7.63;;;;;;;;;;5112219;28;20101;-64
2021/12/25 19:08:34;;;;;;;29.45;10.07;;;;;;;;;;5110943;28;20024;-63
2021/12/25 19:11:00;;;;;;;20.30;6.65;;;;;;;;;;5108878;28;20402;-63
2021/12/25 19:13:26;;;;;;;12.57;4.68;;;;;;;;;;5090901;28;20024;-64
2021/12/25 19:15:53;;;;;;;18.70;4.68;;;;;;;;;;5127914;27;20027;-63
2021/12/25 19:18:19;;;;;;;14.80;3.63;;;;;;;;;;5132447;27;20027;-63
2021/12/25 19:20:45;;;;;;;12.13;3.13;;;;;;;;;;5098692;27;20035;-63
2021/12/25 19:23:11;;;;;;;16.90;4.18;;;;;;;;;;5090363;28;20046;-63
2021/12/25 19:25:37;;;;;;;11.88;2.53;;;;;;;;;;5090409;28;20321;-63
2021/12/25 19:28:04;;;;;;;12.65;2.88;;;;;;;;;;5091103;28;20417;-64
2021/12/25 19:30:34;;;;;;;11.93;2.95;;;;;;;;;;5091517;28;20023;-63
2021/12/25 19:33:00;;;;;;;14.48;3.33;;;;;;;;;;5095776;28;20024;-64
2021/12/25 19:35:26;;;;;;;16.88;3.00;;;;;;;;;;5111498;28;20030;-63
2021/12/25 19:37:53;;;;;;;14.10;3.38;;;;;;;;;;5097809;28;20032;-64
2021/12/25 19:40:20;;;;;;;13.15;3.30;;;;;;;;;;5091277;28;20047;-64
2021/12/25 19:42:46;;;;;;;13.75;2.70;;;;;;;;;;5091005;28;20020;-63
2021/12/25 19:45:12;;;;;;;10.50;2.85;;;;;;;;;;5099885;27;20048;-63
2021/12/25 19:47:40;;;;;;;9.43;2.78;;;;;;;;;;5094542;28;20107;-63
2021/12/25 19:50:10;;;;;;;10.55;2.83;;;;;;;;;;5091678;28;20421;-63
2021/12/25 19:52:37;;;;;;;12.98;2.95;;;;;;;;;;5110137;28;20032;-64
2021/12/25 19:55:03;;;;;;;11.07;2.72;;;;;;;;;;5110143;28;20019;-64
2021/12/25 19:57:29;;;;;;;7.95;2.63;;;;;;;;;;5111062;28;20039;-64
2021/12/25 19:59:55;;;;;;;15.52;3.00;;;;;;;;;;5110112;28;20106;-63
2021/12/25 20:02:24;;;;;;;10.63;2.80;;;;;;;;;;5094874;28;20031;-63
2021/12/25 20:04:51;;;;;;;14.52;4.07;;;;;;;;;;5090865;28;20105;-63
2021/12/25 20:07:17;;;;;;;6.25;2.50;;;;;;;;;;5091795;28;20059;-63
2021/12/25 20:09:43;;;;;;;7.28;2.30;;;;;;;;;;5091062;28;20024;-63
2021/12/25 20:12:13;;;;;;;8.73;2.70;;;;;;;;;;5089451;28;20387;-63
2021/12/25 20:14:39;;;;;;;8.07;2.92;;;;;;;;;;5111545;27;20242;-65
2021/12/25 20:17:05;;;;;;;12.75;2.70;;;;;;;;;;5101968;27;20483;-63
2021/12/25 20:19:31;;;;;;;11.50;2.42;;;;;;;;;;5090328;28;20024;-63
2021/12/25 20:21:57;;;;;;;27.23;11.95;;;;;;;;;;5109890;28;20053;-64
2021/12/25 20:24:23;;;;;;;36.05;21.52;;;;;;;;;;5107938;28;20023;-64
2021/12/25 20:26:49;;;;;;;12.00;4.95;;;;;;;;;;5096051;28;20034;-63
2021/12/25 20:29:17;;;;;;;9.63;3.83;;;;;;;;;;5100419;28;20055;-63
2021/12/25 20:31:43;;;;;;;9.57;2.50;;;;;;;;;;5109706;28;20019;-64
2021/12/25 20:34:09;;;;;;;7.22;2.58;;;;;;;;;;5109148;28;20034;-64
2021/12/25 20:36:35;;;;;;;10.13;2.05;;;;;;;;;;5109743;28;20020;-64
2021/12/25 20:39:01;;;;;;;9.60;3.00;;;;;;;;;;5107537;28;20077;-65
2021/12/25 20:41:27;;;;;;;11.45;2.67;;;;;;;;;;5107969;28;20031;-64
2021/12/25 20:46:38;;;;;;;12.98;2.83;;;;;;;;;;5108885;28;20042;-64
2021/12/25 20:49:05;;;;;;;12.05;3.13;;;;;;;;;;5109448;28;20052;-64
2021/12/25 20:51:31;;;;;;;7.97;2.30;;;;;;;;;;5110560;28;20019;-64
2021/12/25 20:53:57;;;;;;;11.73;3.17;;;;;;;;;;5109353;28;20546;-64
2021/12/25 20:56:23;;;;;;;10.60;2.47;;;;;;;;;;5108782;28;20493;-64
2021/12/25 20:58:49;;;;;;;12.38;2.30;;;;;;;;;;5109855;28;20032;-63
2021/12/25 21:01:15;;;;;;;6.90;1.92;;;;;;;;;;5109554;28;20051;-64
2021/12/25 21:03:41;;;;;;;6.05;2.58;;;;;;;;;;5100834;28;20062;-63
2021/12/25 21:06:07;;;;;;;14.27;2.28;;;;;;;;;;5088797;28;20567;-63
2021/12/25 21:08:34;;;;;;;8.13;2.83;;;;;;;;;;5089369;28;20064;-63
2021/12/25 21:11:00;;;;;;;9.93;2.20;;;;;;;;;;5093257;28;20028;-63
2021/12/25 21:13:26;;;;;;;8.55;2.25;;;;;;;;;;5109845;27;20028;-62
2021/12/25 21:15:52;;;;;;;11.95;2.53;;;;;;;;;;5134531;27;20419;-62
2021/12/25 21:18:18;;;;;;;7.32;2.45;;;;;;;;;;5134419;27;20041;-63
2021/12/25 21:20:44;;;;;;;8.75;2.13;;;;;;;;;;5129001;27;20102;-62
2021/12/25 21:23:10;;;;;;;8.77;2.60;;;;;;;;;;5105938;28;20019;-63
2021/12/25 21:25:37;;;;;;;12.15;2.92;;;;;;;;;;5113924;28;20043;-63
2021/12/25 21:28:03;;;;;;;11.75;3.13;;;;;;;;;;5111931;28;20050;-63
2021/12/25 21:30:29;;;;;;;9.70;2.53;;;;;;;;;;5112400;28;20062;-62
2021/12/25 21:32:57;;;;;;;9.57;2.30;;;;;;;;;;5111739;28;20023;-63
2021/12/25 21:35:25;;;;;;;10.07;2.25;;;;;;;;;;5113582;28;20020;-63
2021/12/25 21:37:51;;;;;;;6.47;1.83;;;;;;;;;;5113411;28;20015;-63
2021/12/25 21:40:17;;;;;;;8.13;2.38;;;;;;;;;;5113791;28;20031;-63
2021/12/25 21:42:43;;;;;;;9.18;2.10;;;;;;;;;;5111713;28;20027;-62
2021/12/25 21:45:10;;;;;;;7.30;1.75;;;;;;;;;;5122302;27;20049;-62
2021/12/25 21:47:36;;;;;;;4.95;1.35;;;;;;;;;;5134109;27;20027;-62
2021/12/25 21:50:04;;;;;;;2.95;1.20;;;;;;;;;;5132103;27;20043;-63
2021/12/25 21:52:30;;;;;;;3.83;1.48;;;;;;;;;;5122372;27;20027;-63
2021/12/25 21:54:56;;;;;;;6.13;1.60;;;;;;;;;;5129715;27;20466;-63
2021/12/25 21:57:22;;;;;;;5.45;1.23;;;;;;;;;;5133713;27;20047;-63
2021/12/25 21:59:48;;;;;;;4.78;1.27;;;;;;;;;;5133743;27;20441;-63
2021/12/25 22:02:14;;;;;;;4.93;1.45;;;;;;;;;;5121156;27;20051;-63
2021/12/25 22:04:46;;;;;;;9.32;1.60;;;;;;;;;;5092936;28;20059;-63
2021/12/25 22:07:16;;;;;;;6.05;1.50;;;;;;;;;;5107663;28;20390;-62
2021/12/25 22:09:47;;;;;;;8.93;1.77;;;;;;;;;;5102752;28;20096;-63
2021/12/25 22:12:13;;;;;;;4.47;1.80;;;;;;;;;;5092516;28;20067;-64
2021/12/25 22:14:39;;;;;;;5.95;2.33;;;;;;;;;;5111386;28;20027;-63
2021/12/25 22:17:05;;;;;;;5.60;1.67;;;;;;;;;;5112790;28;20024;-63
2021/12/25 22:19:32;;;;;;;7.43;1.75;;;;;;;;;;5111795;28;20031;-64
2021/12/25 22:21:58;;;;;;;5.28;1.67;;;;;;;;;;5111595;28;20363;-62
2021/12/25 22:24:24;;;;;;;6.57;1.73;;;;;;;;;;5106429;27;20039;-63
2021/12/25 22:26:50;;;;;;;7.05;1.95;;;;;;;;;;5107035;27;20092;-63
2021/12/25 22:29:16;;;;;;;5.80;1.90;;;;;;;;;;5112450;28;20015;-63
2021/12/25 22:31:42;;;;;;;5.85;2.10;;;;;;;;;;5112803;28;20470;-64
2021/12/25 22:34:09;;;;;;;7.78;2.13;;;;;;;;;;5094910;28;20102;-63
2021/12/25 22:36:35;;;;;;;7.90;1.60;;;;;;;;;;5094106;28;20108;-63
2021/12/25 22:39:01;;;;;;;9.05;1.42;;;;;;;;;;5091900;28;20028;-63
2021/12/25 22:41:27;;;;;;;6.95;1.50;;;;;;;;;;5091207;28;20073;-63
2021/12/25 22:43:53;;;;;;;9.00;1.92;;;;;;;;;;5091745;28;20031;-63
2021/12/25 22:46:19;;;;;;;11.20;2.97;;;;;;;;;;5109741;28;20081;-63
2021/12/25 22:48:45;;;;;;;12.13;2.03;;;;;;;;;;5105503;28;20052;-63
2021/12/25 22:51:11;;;;;;;11.32;2.03;;;;;;;;;;5101737;28;20437;-63
2021/12/25 22:53:38;;;;;;;8.93;1.80;;;;;;;;;;5104544;27;20123;-62
2021/12/25 22:56:04;;;;;;;3.15;1.50;;;;;;;;;;5111557;27;20011;-63
2021/12/25 22:58:30;;;;;;;7.82;1.85;;;;;;;;;;5111468;28;20433;-63
2021/12/25 23:00:56;;;;;;;8.00;2.00;;;;;;;;;;5111307;27;20019;-62
2021/12/25 23:03:23;;;;;;;10.10;2.00;;;;;;;;;;5110245;28;20027;-62
2021/12/25 23:05:49;;;;;;;6.60;1.83;;;;;;;;;;5110103;28;20514;-62
2021/12/25 23:08:25;;;;;;;8.07;1.63;;;;;;;;;;5101072;28;20056;-62
2021/12/25 23:10:52;;;;;;;8.13;1.88;;;;;;;;;;5099488;28;20028;-62
2021/12/25 23:13:20;;;;;;;5.63;1.20;;;;;;;;;;5110275;28;20051;-61
2021/12/25 23:15:46;;;;;;;9.75;1.73;;;;;;;;;;5110768;28;20043;-62
2021/12/25 23:18:12;;;;;;;6.10;1.27;;;;;;;;;;5111714;28;20500;-62
2021/12/25 23:20:38;;;;;;;9.77;1.67;;;;;;;;;;5112070;28;20031;-63
2021/12/25 23:23:05;;;;;;;8.23;1.67;;;;;;;;;;5110023;28;20988;-63
2021/12/25 23:25:31;;;;;;;9.27;1.52;;;;;;;;;;5110830;27;20032;-63
